createdAt,value
2023-04-15T00:01:27.627Z,100.00
2023-04-15T00:06:19.869Z,100.00
2023-04-15T00:11:16.333Z,100.00
2023-04-15T00:16:09.598Z,100.00
2023-04-15T00:26:14.670Z,100.00
2023-04-15T00:31:06.662Z,100.00
2023-04-15T00:35:58.827Z,100.00
2023-04-15T00:40:50.724Z,100.00
2023-04-15T00:45:43.305Z,100.00
2023-04-15T00:50:35.062Z,100.00
2023-04-15T00:55:26.761Z,100.00
2023-04-15T01:00:23.833Z,100.00
2023-04-15T01:05:20.201Z,100.00
2023-04-15T01:15:19.889Z,100.00
2023-04-15T01:20:12.128Z,100.00
2023-04-15T01:25:13.183Z,100.00
2023-04-15T01:30:06.320Z,100.00
2023-04-15T01:34:58.002Z,100.00
2023-04-15T01:39:49.787Z,100.00
2023-04-15T01:44:41.783Z,100.00
2023-04-15T01:49:33.533Z,100.00
2023-04-15T01:54:25.539Z,100.00
2023-04-15T01:59:17.771Z,100.00
2023-04-15T02:04:16.297Z,100.00
2023-04-15T02:09:08.280Z,100.00
2023-04-15T02:13:59.943Z,100.00
2023-04-15T02:18:52.119Z,100.00
2023-04-15T02:23:43.977Z,100.00
2023-04-15T02:28:35.798Z,100.00
2023-04-15T02:33:27.519Z,100.00
2023-04-15T02:38:19.188Z,100.00
2023-04-15T02:43:10.869Z,100.00
2023-04-15T02:48:06.049Z,100.00
2023-04-15T02:52:57.911Z,100.00
2023-04-15T02:57:49.622Z,100.00
2023-04-15T03:02:42.271Z,100.00
2023-04-15T03:07:34.130Z,100.00
2023-04-15T03:12:25.864Z,100.00
2023-04-15T03:17:17.980Z,100.00
2023-04-15T03:22:09.634Z,100.00
2023-04-15T03:27:01.879Z,100.00
2023-04-15T03:31:53.839Z,100.00
2023-04-15T03:36:46.331Z,100.00
2023-04-15T03:41:37.991Z,100.00
2023-04-15T03:46:29.702Z,100.00
2023-04-15T03:51:21.504Z,100.00
2023-04-15T03:56:13.223Z,100.00
2023-04-15T04:01:05.145Z,100.00
2023-04-15T04:05:56.880Z,100.00
2023-04-15T04:10:48.558Z,100.00
2023-04-15T04:15:40.679Z,100.00
2023-04-15T04:20:32.533Z,100.00
2023-04-15T04:25:24.695Z,100.00
2023-04-15T04:30:17.361Z,100.00
2023-04-15T04:35:09.335Z,100.00
2023-04-15T04:40:01.846Z,100.00
2023-04-15T04:44:53.524Z,100.00
2023-04-15T04:49:45.208Z,100.00
2023-04-15T04:54:37.619Z,100.00
2023-04-15T04:59:29.291Z,100.00
2023-04-15T05:04:20.947Z,100.00
2023-04-15T05:09:12.677Z,100.00
2023-04-15T05:14:04.355Z,100.00
2023-04-15T05:18:56.080Z,100.00
2023-04-15T05:23:47.789Z,93.00
2023-04-15T05:28:39.458Z,86.23
2023-04-15T05:33:31.224Z,82.38
2023-04-15T05:38:23.544Z,82.49
2023-04-15T05:43:15.565Z,84.88
2023-04-15T05:48:07.294Z,87.23
2023-04-15T05:52:59.095Z,88.01
2023-04-15T05:57:51.118Z,87.82
2023-04-15T06:02:43.359Z,88.93
2023-04-15T06:07:36.722Z,86.92
2023-04-15T06:12:28.651Z,85.52
2023-04-15T06:17:21.442Z,84.59
2023-04-15T06:22:13.247Z,85.00
2023-04-15T06:27:05.008Z,83.74
2023-04-15T06:31:56.826Z,83.84
2023-04-15T06:36:48.551Z,83.81
2023-04-15T06:41:40.614Z,84.09
2023-04-15T06:46:32.585Z,82.28
2023-04-15T06:51:26.560Z,82.39
2023-04-15T06:56:18.482Z,81.96
2023-04-15T07:01:10.686Z,82.13
2023-04-15T07:06:06.241Z,80.78
2023-04-15T07:10:57.931Z,80.15
2023-04-15T07:15:49.612Z,80.26
2023-04-15T07:20:41.414Z,79.93
2023-04-15T07:25:33.108Z,77.12
2023-04-15T07:30:24.839Z,72.49
2023-04-15T07:40:22.350Z,68.02
2023-04-15T07:45:14.319Z,68.97
2023-04-15T07:50:07.324Z,67.28
2023-04-15T07:55:02.729Z,66.21
2023-04-15T07:59:54.401Z,65.61
2023-04-15T08:04:46.721Z,66.00
2023-04-15T08:09:38.554Z,65.67
2023-04-15T08:14:30.296Z,65.60
2023-04-15T08:19:22.859Z,66.02
2023-04-15T08:24:14.545Z,65.92
2023-04-15T08:29:06.231Z,65.92
2023-04-15T08:33:58.197Z,65.02
2023-04-15T08:38:49.871Z,64.27
2023-04-15T08:44:01.930Z,63.12
2023-04-15T08:48:58.204Z,62.85
2023-04-15T08:53:50.785Z,61.33
2023-04-15T08:58:45.370Z,61.41
2023-04-15T09:03:37.661Z,59.77
2023-04-15T09:13:35.201Z,60.00
2023-04-15T09:18:32.556Z,59.43
2023-04-15T09:23:24.362Z,58.85
2023-04-15T09:28:28.294Z,58.00
2023-04-15T09:33:19.981Z,57.98
2023-04-15T09:38:12.630Z,57.91
2023-04-15T09:43:06.183Z,57.57
2023-04-15T09:47:59.770Z,56.00
2023-04-15T09:52:51.456Z,57.36
2023-04-15T09:57:44.549Z,56.21
2023-04-15T10:02:37.179Z,56.09
2023-04-15T10:07:30.652Z,55.72
2023-04-15T10:12:23.399Z,54.23
2023-04-15T10:17:18.641Z,56.86
2023-04-15T10:22:11.391Z,57.67
2023-04-15T10:27:05.637Z,56.38
2023-04-15T10:31:59.703Z,56.59
2023-04-15T10:36:51.903Z,56.22
2023-04-15T10:41:43.606Z,55.61
2023-04-15T10:46:45.929Z,55.39
2023-04-15T10:52:03.185Z,56.46
2023-04-15T10:57:01.646Z,55.68
2023-04-15T11:02:01.564Z,55.98
2023-04-15T11:07:06.573Z,54.71
2023-04-15T11:12:09.653Z,56.85
2023-04-15T11:17:01.828Z,55.81
2023-04-15T11:21:54.426Z,54.05
2023-04-15T11:26:46.087Z,53.95
2023-04-15T11:31:37.808Z,54.92
2023-04-15T11:36:31.833Z,55.29
2023-04-15T11:41:31.545Z,52.96
2023-04-15T11:51:38.983Z,54.46
2023-04-15T11:56:31.880Z,52.33
2023-04-15T12:01:47.185Z,51.88
2023-04-15T12:06:39.101Z,51.45
2023-04-15T12:11:44.385Z,49.71
2023-04-15T12:16:47.778Z,50.44
2023-04-15T12:21:45.927Z,49.63
2023-04-15T12:26:53.522Z,50.13
2023-04-15T12:32:05.546Z,51.12
2023-04-15T12:36:59.053Z,48.61
2023-04-15T12:41:51.204Z,49.64
2023-04-15T12:46:42.931Z,48.08
2023-04-15T12:51:35.411Z,45.94
2023-04-15T12:56:27.167Z,44.04
2023-04-15T13:01:19.124Z,43.47
2023-04-15T13:06:11.114Z,43.71
2023-04-15T13:11:03.636Z,43.45
2023-04-15T13:15:55.382Z,44.74
2023-04-15T13:20:47.135Z,45.50
2023-04-15T13:25:38.802Z,48.10
2023-04-15T13:30:31.413Z,48.56
2023-04-15T13:35:23.124Z,47.19
2023-04-15T13:40:14.879Z,44.96
2023-04-15T13:45:07.593Z,45.77
2023-04-15T13:49:59.403Z,45.80
2023-04-15T13:55:18.585Z,40.61
2023-04-15T14:00:04.618Z,43.50
2023-04-15T14:04:56.345Z,44.28
2023-04-15T14:09:48.358Z,44.05
2023-04-15T14:14:40.428Z,43.02
2023-04-15T14:19:33.160Z,43.33
2023-04-15T14:24:25.630Z,46.94
2023-04-15T14:29:17.323Z,46.79
2023-04-15T14:34:09.094Z,46.76
2023-04-15T14:39:00.799Z,48.36
2023-04-15T14:43:55.743Z,48.06
2023-04-15T14:48:47.579Z,50.17
2023-04-15T14:53:39.272Z,50.47
2023-04-15T14:58:31.134Z,51.51
2023-04-15T15:03:23.960Z,51.83
2023-04-15T15:08:15.975Z,52.29
2023-04-15T15:23:24.420Z,56.51
2023-04-15T15:28:16.102Z,55.92
2023-04-15T15:33:08.662Z,57.85
2023-04-15T15:38:01.383Z,61.34
2023-04-15T15:42:53.281Z,63.09
2023-04-15T15:47:45.784Z,63.83
2023-04-15T15:52:37.764Z,64.29
2023-04-15T15:57:30.021Z,64.94
2023-04-15T16:07:27.629Z,65.15
2023-04-15T16:12:19.651Z,66.12
2023-04-15T16:17:12.262Z,66.68
2023-04-15T16:22:04.136Z,68.75
2023-04-15T16:26:58.437Z,69.41
2023-04-15T16:31:50.351Z,69.52
2023-04-15T16:36:42.231Z,69.69
2023-04-15T16:41:36.831Z,70.95
2023-04-15T16:46:30.392Z,72.19
2023-04-15T17:01:35.482Z,74.82
2023-04-15T17:11:38.305Z,76.90
2023-04-15T17:16:30.415Z,75.51
2023-04-15T17:21:22.939Z,77.48
2023-04-15T17:26:14.604Z,75.70
2023-04-15T17:31:07.771Z,77.01
2023-04-15T17:36:04.583Z,77.63
2023-04-15T17:40:56.494Z,78.02
2023-04-15T17:50:53.971Z,77.63
2023-04-15T17:55:46.786Z,79.53
2023-04-15T18:00:38.477Z,80.68
2023-04-15T18:05:30.669Z,80.70
2023-04-15T18:10:22.711Z,79.67
2023-04-15T18:15:14.530Z,82.51
2023-04-15T18:20:07.712Z,83.09
2023-04-15T18:30:11.571Z,84.14
2023-04-15T18:35:14.979Z,86.63
2023-04-15T18:40:08.860Z,89.42
2023-04-15T18:45:01.843Z,92.52
2023-04-15T18:49:53.882Z,95.15
2023-04-15T18:54:45.733Z,96.35
2023-04-15T18:59:38.118Z,95.99
2023-04-15T19:04:32.261Z,96.14
2023-04-15T19:09:33.190Z,99.06
2023-04-15T19:14:25.297Z,99.19
2023-04-15T19:19:25.331Z,97.53
2023-04-15T19:29:28.888Z,93.04
2023-04-15T19:34:29.265Z,94.90
2023-04-15T19:44:27.094Z,100.00
2023-04-15T19:49:21.283Z,100.00
2023-04-15T19:54:13.009Z,100.00
2023-04-15T20:04:11.824Z,100.00
2023-04-15T20:09:05.282Z,100.00
2023-04-15T20:19:10.187Z,100.00
2023-04-15T20:24:03.181Z,100.00
2023-04-15T20:28:55.315Z,100.00
2023-04-15T20:33:47.041Z,100.00
2023-04-15T20:38:40.832Z,100.00
2023-04-15T20:43:32.734Z,100.00
2023-04-15T20:48:25.062Z,100.00
2023-04-15T20:53:18.392Z,100.00
2023-04-15T21:03:17.433Z,100.00
2023-04-15T21:13:17.988Z,100.00
2023-04-15T21:18:11.666Z,100.00
2023-04-15T21:23:04.068Z,100.00
2023-04-15T21:33:01.994Z,100.00
2023-04-15T21:37:57.069Z,100.00
2023-04-15T21:42:49.408Z,100.00
2023-04-15T21:47:56.738Z,100.00
2023-04-15T21:57:59.149Z,100.00
2023-04-15T22:08:02.908Z,100.00
2023-04-15T22:18:06.689Z,100.00
2023-04-15T22:33:15.600Z,100.00
2023-04-15T23:08:46.243Z,100.00
2023-04-15T23:34:10.646Z,100.00
2023-04-15T23:59:35.399Z,100.00
